createdAt,value
2023-01-18T00:01:37.894Z,47.53
2023-01-18T00:04:08.336Z,41.65
2023-01-18T00:06:37.283Z,40.67
2023-01-18T00:09:06.269Z,43.50
2023-01-18T00:11:35.330Z,46.40
2023-01-18T00:14:04.662Z,42.95
2023-01-18T00:16:34.410Z,37.30
2023-01-18T00:19:03.368Z,46.42
2023-01-18T00:21:34.765Z,43.70
2023-01-18T00:24:03.992Z,38.83
2023-01-18T00:26:33.113Z,45.47
2023-01-18T00:29:02.071Z,45.92
2023-01-18T00:31:31.741Z,42.10
2023-01-18T00:34:00.862Z,45.35
2023-01-18T00:36:32.040Z,37.03
2023-01-18T00:39:02.376Z,39.17
2023-01-18T00:41:31.640Z,41.63
2023-01-18T00:43:59.665Z,40.97
2023-01-18T00:46:28.810Z,38.67
2023-01-18T00:48:59.169Z,38.15
2023-01-18T00:51:28.163Z,37.97
2023-01-18T00:53:57.242Z,38.40
2023-01-18T00:56:28.807Z,37.42
2023-01-18T00:58:57.809Z,35.90
2023-01-18T01:01:27.030Z,38.83
2023-01-18T01:04:14.111Z,36.80
2023-01-18T01:06:46.783Z,39.30
2023-01-18T01:09:19.179Z,34.80
2023-01-18T01:12:08.422Z,40.28
2023-01-18T01:14:57.345Z,37.67
2023-01-18T01:17:44.362Z,44.03
2023-01-18T01:20:31.637Z,35.80
2023-01-18T01:23:27.883Z,35.97
2023-01-18T01:26:09.310Z,38.25
2023-01-18T01:28:42.189Z,35.33
2023-01-18T01:31:12.784Z,39.70
2023-01-18T01:33:43.089Z,36.67
2023-01-18T01:36:14.930Z,31.42
2023-01-18T01:38:44.514Z,43.10
2023-01-18T01:41:17.501Z,35.15
2023-01-18T01:43:49.787Z,40.05
2023-01-18T01:46:30.887Z,35.35
2023-01-18T01:49:06.310Z,35.40
2023-01-18T01:51:37.533Z,35.80
2023-01-18T01:54:11.482Z,39.67
2023-01-18T01:56:42.324Z,33.97
2023-01-18T01:59:13.099Z,41.17
2023-01-18T02:01:44.589Z,37.38
2023-01-18T02:04:17.336Z,48.53
2023-01-18T02:06:46.627Z,46.03
2023-01-18T02:09:21.375Z,44.35
2023-01-18T02:11:52.839Z,39.30
2023-01-18T02:14:27.664Z,39.10
2023-01-18T02:17:10.077Z,36.25
2023-01-18T02:20:09.694Z,42.58
2023-01-18T02:23:01.080Z,42.10
2023-01-18T02:25:58.007Z,51.38
2023-01-18T02:28:34.194Z,44.17
2023-01-18T02:31:09.259Z,47.92
2023-01-18T02:33:44.035Z,48.47
2023-01-18T02:36:26.545Z,44.03
2023-01-18T02:39:03.697Z,52.42
2023-01-18T02:41:51.100Z,43.10
2023-01-18T02:44:46.325Z,40.65
2023-01-18T02:47:16.039Z,51.85
2023-01-18T02:49:45.721Z,48.90
2023-01-18T02:52:52.292Z,45.28
2023-01-18T02:55:32.204Z,42.35
2023-01-18T02:58:06.345Z,43.17
2023-01-18T03:00:42.362Z,39.60
2023-01-18T03:03:13.500Z,41.75
2023-01-18T03:05:46.519Z,43.88
2023-01-18T03:08:22.375Z,39.08
2023-01-18T03:11:02.168Z,43.92
2023-01-18T03:13:48.014Z,42.20
2023-01-18T03:16:25.726Z,40.75
2023-01-18T03:19:01.615Z,40.85
2023-01-18T03:21:39.028Z,46.10
2023-01-18T03:24:10.622Z,41.22
2023-01-18T03:26:43.521Z,27.42
2023-01-18T03:29:33.724Z,39.17
2023-01-18T03:32:28.912Z,46.08
2023-01-18T03:35:03.404Z,41.33
2023-01-18T03:37:37.879Z,39.65
2023-01-18T03:40:12.057Z,43.40
2023-01-18T03:42:46.435Z,34.33
2023-01-18T03:45:24.235Z,40.88
2023-01-18T03:47:55.456Z,39.03
2023-01-18T03:50:30.018Z,36.53
2023-01-18T03:53:05.809Z,41.63
2023-01-18T03:55:42.639Z,38.85
2023-01-18T03:58:13.981Z,37.20
2023-01-18T04:00:43.104Z,39.38
2023-01-18T04:03:13.790Z,41.65
2023-01-18T04:05:43.088Z,41.58
2023-01-18T04:08:12.657Z,36.42
2023-01-18T04:10:42.086Z,41.95
2023-01-18T04:13:11.667Z,38.72
2023-01-18T04:15:40.914Z,31.52
2023-01-18T04:18:10.327Z,37.92
2023-01-18T04:20:40.898Z,42.92
2023-01-18T04:23:10.085Z,33.88
2023-01-18T04:25:40.922Z,37.00
2023-01-18T04:28:13.430Z,36.75
2023-01-18T04:30:43.012Z,36.90
2023-01-18T04:33:12.142Z,30.30
2023-01-18T04:35:42.674Z,31.73
2023-01-18T04:38:11.668Z,34.90
2023-01-18T04:40:41.082Z,33.55
2023-01-18T04:43:10.680Z,35.38
2023-01-18T04:45:41.375Z,31.35
2023-01-18T04:48:10.587Z,33.35
2023-01-18T04:50:40.067Z,33.63
2023-01-18T04:53:10.858Z,38.33
2023-01-18T04:55:40.422Z,35.00
2023-01-18T04:58:10.654Z,39.60
2023-01-18T05:00:40.711Z,37.08
2023-01-18T05:03:10.501Z,28.67
2023-01-18T05:05:40.206Z,27.75
2023-01-18T05:08:11.063Z,36.90
2023-01-18T05:10:40.350Z,32.28
2023-01-18T05:13:09.573Z,34.00
2023-01-18T05:15:40.119Z,36.85
2023-01-18T05:18:11.726Z,32.00
2023-01-18T05:20:41.441Z,31.00
2023-01-18T05:23:14.421Z,31.75
2023-01-18T05:25:43.816Z,35.92
2023-01-18T05:28:17.373Z,38.90
2023-01-18T05:30:51.565Z,35.10
2023-01-18T05:33:24.334Z,34.15
2023-01-18T05:35:56.295Z,35.25
2023-01-18T05:38:31.619Z,42.72
2023-01-18T05:41:01.031Z,44.38
2023-01-18T05:43:32.593Z,41.90
2023-01-18T05:46:06.711Z,47.28
2023-01-18T05:48:36.023Z,36.65
2023-01-18T05:51:09.258Z,41.50
2023-01-18T05:53:47.418Z,46.28
2023-01-18T05:56:20.001Z,45.42
2023-01-18T05:58:56.768Z,43.67
2023-01-18T06:01:28.406Z,44.88
2023-01-18T06:04:09.525Z,41.25
2023-01-18T06:06:38.950Z,41.78
2023-01-18T06:09:09.837Z,40.13
2023-01-18T06:11:41.816Z,40.95
2023-01-18T06:14:11.386Z,50.40
2023-01-18T06:16:40.703Z,42.10
2023-01-18T06:19:10.063Z,39.03
2023-01-18T06:21:39.701Z,42.33
2023-01-18T06:24:11.035Z,41.85
2023-01-18T06:26:41.051Z,34.03
2023-01-18T06:29:10.613Z,41.83
2023-01-18T06:31:40.097Z,37.75
2023-01-18T06:34:10.596Z,41.95
2023-01-18T06:36:41.041Z,37.17
2023-01-18T06:39:13.397Z,36.38
2023-01-18T06:41:46.147Z,34.40
2023-01-18T06:44:18.276Z,41.35
2023-01-18T06:46:47.914Z,36.47
2023-01-18T06:49:22.140Z,36.92
2023-01-18T06:51:51.747Z,42.90
2023-01-18T06:54:22.680Z,38.05
2023-01-18T06:56:52.095Z,33.03
2023-01-18T06:59:24.664Z,48.13
2023-01-18T07:01:55.258Z,40.17
2023-01-18T07:04:24.749Z,39.53
2023-01-18T07:06:54.595Z,33.40
2023-01-18T07:09:26.247Z,38.20
2023-01-18T07:11:55.842Z,39.13
2023-01-18T07:14:25.625Z,42.55
2023-01-18T07:16:55.665Z,35.28
2023-01-18T07:19:25.425Z,43.75
2023-01-18T07:21:55.143Z,40.45
2023-01-18T07:24:26.667Z,41.80
2023-01-18T07:26:59.976Z,34.78
2023-01-18T07:29:31.568Z,38.60
2023-01-18T07:32:09.190Z,43.45
2023-01-18T07:34:38.469Z,44.25
2023-01-18T07:37:08.089Z,46.30
2023-01-18T07:39:39.038Z,48.50
2023-01-18T07:42:09.262Z,43.20
2023-01-18T07:44:42.554Z,49.10
2023-01-18T07:47:12.488Z,39.08
2023-01-18T07:49:42.734Z,45.58
2023-01-18T07:52:13.531Z,50.00
2023-01-18T07:54:44.717Z,43.80
2023-01-18T07:57:17.086Z,50.40
2023-01-18T07:59:46.789Z,60.22
2023-01-18T08:02:17.647Z,55.72
2023-01-18T08:04:50.978Z,51.38
2023-01-18T08:07:20.658Z,56.78
2023-01-18T08:09:51.727Z,55.58
2023-01-18T08:12:23.129Z,53.47
2023-01-18T08:14:52.970Z,61.85
2023-01-18T08:17:22.462Z,52.30
2023-01-18T08:19:51.856Z,56.63
2023-01-18T08:22:25.342Z,53.17
2023-01-18T08:24:55.986Z,53.40
2023-01-18T08:27:27.335Z,52.45
2023-01-18T08:29:57.599Z,54.20
2023-01-18T08:32:27.251Z,53.85
2023-01-18T08:34:57.336Z,46.58
2023-01-18T08:37:27.084Z,59.92
2023-01-18T08:39:58.015Z,47.50
2023-01-18T08:42:27.912Z,52.20
2023-01-18T08:44:58.177Z,46.03
2023-01-18T08:47:29.199Z,46.15
2023-01-18T08:50:01.820Z,43.45
2023-01-18T08:52:31.725Z,58.08
2023-01-18T08:55:06.408Z,50.03
2023-01-18T08:57:36.017Z,45.65
2023-01-18T09:00:13.256Z,47.78
2023-01-18T09:02:44.560Z,44.10
2023-01-18T09:05:14.639Z,45.97
2023-01-18T09:07:45.720Z,47.75
2023-01-18T09:10:16.845Z,39.88
2023-01-18T09:12:48.002Z,38.75
2023-01-18T09:15:18.685Z,41.42
2023-01-18T09:17:48.551Z,43.97
2023-01-18T09:20:21.234Z,43.03
2023-01-18T09:22:51.314Z,53.13
2023-01-18T09:25:24.823Z,38.17
2023-01-18T09:27:54.860Z,40.33
2023-01-18T09:30:24.793Z,37.88
2023-01-18T09:32:54.695Z,41.78
2023-01-18T09:35:24.532Z,42.63
2023-01-18T09:37:58.018Z,44.03
2023-01-18T09:40:38.330Z,36.65
2023-01-18T09:43:17.506Z,35.42
2023-01-18T09:45:49.124Z,39.40
2023-01-18T09:48:30.267Z,34.00
2023-01-18T09:51:06.553Z,33.45
2023-01-18T09:53:52.076Z,35.47
2023-01-18T09:56:28.114Z,37.83
2023-01-18T09:59:06.839Z,30.83
2023-01-18T10:01:38.987Z,46.25
2023-01-18T10:04:17.304Z,40.30
2023-01-18T10:06:50.867Z,31.08
2023-01-18T10:11:59.926Z,37.03
2023-01-18T10:14:43.420Z,37.03
2023-01-18T10:17:18.048Z,39.40
2023-01-18T10:19:47.393Z,41.20
2023-01-18T10:22:23.418Z,35.05
2023-01-18T10:25:03.761Z,39.78
2023-01-18T10:28:05.681Z,32.58
2023-01-18T10:30:57.092Z,34.78
2023-01-18T10:33:30.605Z,33.22
2023-01-18T10:36:11.526Z,39.08
2023-01-18T10:38:45.636Z,38.92
2023-01-18T10:41:21.795Z,31.33
2023-01-18T10:44:11.055Z,35.92
2023-01-18T10:46:43.344Z,39.58
2023-01-18T10:49:41.508Z,38.15
2023-01-18T10:52:26.641Z,40.63
2023-01-18T10:55:01.573Z,34.97
2023-01-18T10:57:35.926Z,39.28
2023-01-18T11:00:21.679Z,37.53
2023-01-18T11:03:00.211Z,32.00
2023-01-18T11:05:37.896Z,30.23
2023-01-18T11:08:22.486Z,36.80
2023-01-18T11:11:01.835Z,31.30
2023-01-18T11:13:43.847Z,31.05
2023-01-18T11:16:20.951Z,37.28
2023-01-18T11:18:59.170Z,31.52
2023-01-18T11:21:46.489Z,27.15
2023-01-18T11:24:24.400Z,32.05
2023-01-18T11:27:10.689Z,37.70
2023-01-18T11:29:47.936Z,26.63
2023-01-18T11:32:27.592Z,25.75
2023-01-18T11:35:00.204Z,31.52
2023-01-18T11:37:34.488Z,27.05
2023-01-18T11:40:28.160Z,29.88
2023-01-18T11:43:03.870Z,24.13
2023-01-18T11:45:38.687Z,30.63
2023-01-18T11:48:15.063Z,31.58
2023-01-18T11:50:48.670Z,29.30
2023-01-18T11:53:31.291Z,34.92
2023-01-18T11:56:08.635Z,30.13
2023-01-18T11:58:38.694Z,38.33
2023-01-18T12:01:26.392Z,38.22
2023-01-18T12:04:04.283Z,24.55
2023-01-18T12:06:45.856Z,25.27
2023-01-18T12:09:25.355Z,27.92
2023-01-18T12:12:18.919Z,35.10
2023-01-18T12:15:06.802Z,25.48
2023-01-18T12:18:07.773Z,30.23
2023-01-18T12:20:55.709Z,32.50
2023-01-18T12:23:51.256Z,28.35
2023-01-18T12:26:42.943Z,24.17
2023-01-18T12:29:37.318Z,31.15
2023-01-18T12:34:55.569Z,20.60
2023-01-18T12:37:41.071Z,29.05
2023-01-18T12:40:34.201Z,29.17
2023-01-18T12:43:16.446Z,22.20
2023-01-18T12:45:54.760Z,21.77
2023-01-18T12:48:30.009Z,30.25
2023-01-18T12:51:00.939Z,19.88
2023-01-18T12:53:40.453Z,26.10
2023-01-18T12:56:20.170Z,27.02
2023-01-18T12:58:55.945Z,40.22
2023-01-18T13:01:28.679Z,25.30
2023-01-18T16:14:38.504Z,28.25
2023-01-18T16:17:14.158Z,26.25
2023-01-18T16:19:45.698Z,26.10
2023-01-18T16:22:21.866Z,28.45
2023-01-18T16:24:57.758Z,26.30
2023-01-18T16:27:29.223Z,26.02
2023-01-18T16:30:03.088Z,45.97
2023-01-18T16:32:38.474Z,26.77
2023-01-18T16:35:15.291Z,21.92
2023-01-18T16:37:45.592Z,25.50
2023-01-18T16:40:16.248Z,22.35
2023-01-18T16:43:02.755Z,22.92
2023-01-18T16:45:36.902Z,21.65
2023-01-18T16:48:15.677Z,29.30
2023-01-18T16:50:45.259Z,25.90
2023-01-18T16:53:14.597Z,24.05
2023-01-18T16:55:45.973Z,28.52
2023-01-18T16:58:16.543Z,20.95
2023-01-18T17:01:05.791Z,19.38
2023-01-18T17:03:55.136Z,28.40
2023-01-18T17:06:29.861Z,25.05
2023-01-18T17:09:13.808Z,30.88
2023-01-18T17:11:43.840Z,27.52
2023-01-18T17:14:45.896Z,24.08
2023-01-18T17:18:01.644Z,24.42
2023-01-18T17:25:28.137Z,25.65
2023-01-18T17:28:21.776Z,30.58
2023-01-18T17:30:53.441Z,27.85
2023-01-18T17:33:36.183Z,19.20
2023-01-18T17:36:07.542Z,24.40
2023-01-18T17:38:52.478Z,22.58
2023-01-18T17:41:27.781Z,22.70
2023-01-18T17:44:00.628Z,27.77
2023-01-18T17:46:30.445Z,24.70
2023-01-18T17:49:04.666Z,26.10
2023-01-18T17:51:35.562Z,27.55
2023-01-18T17:54:10.268Z,22.83
2023-01-18T17:56:42.488Z,26.05
2023-01-18T17:59:19.081Z,17.92
2023-01-18T18:01:52.532Z,38.53
2023-01-18T18:04:24.091Z,24.77
2023-01-18T18:06:58.746Z,21.17
2023-01-18T18:09:28.628Z,30.38
2023-01-18T18:11:58.591Z,22.77
2023-01-18T18:14:34.446Z,24.58
2023-01-18T18:17:07.130Z,21.55
2023-01-18T18:19:41.367Z,24.80
2023-01-18T18:22:20.683Z,26.77
2023-01-18T18:24:53.072Z,25.48
2023-01-18T18:27:24.767Z,31.92
2023-01-18T18:29:56.704Z,25.75
2023-01-18T18:32:26.713Z,26.60
2023-01-18T18:34:58.574Z,22.20
2023-01-18T18:37:58.057Z,20.35
2023-01-18T18:40:41.454Z,29.67
2023-01-18T18:43:11.737Z,29.63
2023-01-18T18:45:45.368Z,27.73
2023-01-18T18:48:15.789Z,18.05
2023-01-18T18:50:56.969Z,23.40
2023-01-18T18:53:37.371Z,20.55
2023-01-18T18:56:10.808Z,21.63
2023-01-18T18:58:40.420Z,26.00
2023-01-18T19:01:20.962Z,21.92
2023-01-18T19:03:52.047Z,24.05
2023-01-18T19:06:26.019Z,23.98
2023-01-18T19:08:57.611Z,18.63
2023-01-18T19:11:41.570Z,22.27
2023-01-18T19:14:17.905Z,26.10
2023-01-18T19:16:48.255Z,22.10
2023-01-18T19:19:18.025Z,28.40
2023-01-18T19:21:51.002Z,22.08
2023-01-18T19:24:21.089Z,26.65
2023-01-18T19:26:50.253Z,25.48
2023-01-18T19:29:20.164Z,22.13
2023-01-18T19:31:50.075Z,26.40
2023-01-18T19:34:21.465Z,26.30
2023-01-18T19:36:53.203Z,31.98
2023-01-18T19:39:23.009Z,24.90
2023-01-18T19:41:52.975Z,28.15
2023-01-18T19:44:22.590Z,30.13
2023-01-18T19:46:53.018Z,26.73
2023-01-18T19:49:25.279Z,25.15
2023-01-18T19:51:56.618Z,18.58
2023-01-18T19:54:26.711Z,22.83
2023-01-18T19:57:03.119Z,20.45
2023-01-18T19:59:34.984Z,29.67
2023-01-18T20:02:04.882Z,26.42
2023-01-18T20:04:34.998Z,33.00
2023-01-18T20:07:06.115Z,31.65
2023-01-18T20:09:43.138Z,25.45
2023-01-18T20:12:15.968Z,29.30
2023-01-18T20:14:48.992Z,23.85
2023-01-18T20:17:25.484Z,27.95
2023-01-18T20:19:55.843Z,31.00
2023-01-18T20:22:26.722Z,26.23
2023-01-18T20:24:55.954Z,28.95
2023-01-18T20:27:24.933Z,30.23
2023-01-18T20:29:54.723Z,30.80
2023-01-18T20:32:27.458Z,29.17
2023-01-18T20:34:58.799Z,28.00
2023-01-18T20:37:30.204Z,25.48
2023-01-18T20:40:03.741Z,27.90
2023-01-18T20:42:42.130Z,28.90
2023-01-18T20:45:27.389Z,30.48
2023-01-18T20:48:01.728Z,37.30
2023-01-18T20:50:34.072Z,31.23
2023-01-18T20:53:05.629Z,25.60
2023-01-18T20:55:38.358Z,20.33
2023-01-18T20:58:10.506Z,25.77
2023-01-18T21:00:42.256Z,30.85
2023-01-18T21:03:18.144Z,33.95
2023-01-18T21:05:47.806Z,28.65
2023-01-18T21:08:19.676Z,29.23
2023-01-18T21:10:51.059Z,32.50
2023-01-18T21:13:22.139Z,21.40
2023-01-18T21:15:59.386Z,37.25
2023-01-18T21:18:30.790Z,31.27
2023-01-18T21:21:05.874Z,33.08
2023-01-18T21:23:56.335Z,24.95
2023-01-18T21:26:32.254Z,27.23
2023-01-18T21:29:02.067Z,29.73
2023-01-18T21:31:33.758Z,26.35
2023-01-18T21:34:24.647Z,32.20
2023-01-18T21:37:00.753Z,29.17
2023-01-18T21:39:31.578Z,31.67
2023-01-18T21:42:19.870Z,35.80
2023-01-18T21:45:07.356Z,29.73
2023-01-18T21:47:51.888Z,30.98
2023-01-18T21:50:42.153Z,25.95
2023-01-18T21:53:45.073Z,31.38
2023-01-18T21:56:21.047Z,27.75
2023-01-18T21:58:58.063Z,36.78
